sensor_id;sensor_type;location;lat;lon;timestamp;P1;durP1;ratioP1;P2;durP2;ratioP2
40044;SDS011;25735;48.122;11.422;2023-02-13T00:01:22;18.65;;;10.35;;
40044;SDS011;25735;48.122;11.422;2023-02-13T00:03:47;15.90;;;9.27;;
40044;SDS011;25735;48.122;11.422;2023-02-13T00:06:13;19.10;;;10.63;;
40044;SDS011;25735;48.122;11.422;2023-02-13T00:08:38;16.77;;;9.63;;
40044;SDS011;25735;48.122;11.422;2023-02-13T00:11:03;17.40;;;10.80;;
40044;SDS011;25735;48.122;11.422;2023-02-13T00:13:29;20.20;;;11.52;;
40044;SDS011;25735;48.122;11.422;2023-02-13T00:15:57;18.15;;;11.18;;
40044;SDS011;25735;48.122;11.422;2023-02-13T00:18:24;19.88;;;12.18;;
40044;SDS011;25735;48.122;11.422;2023-02-13T00:20:58;20.23;;;11.20;;
40044;SDS011;25735;48.122;11.422;2023-02-13T00:23:27;19.45;;;11.13;;
40044;SDS011;25735;48.122;11.422;2023-02-13T00:25:54;19.50;;;11.45;;
40044;SDS011;25735;48.122;11.422;2023-02-13T00:28:19;18.38;;;11.13;;
40044;SDS011;25735;48.122;11.422;2023-02-13T00:30:44;22.38;;;12.70;;
40044;SDS011;25735;48.122;11.422;2023-02-13T00:33:09;20.55;;;11.02;;
40044;SDS011;25735;48.122;11.422;2023-02-13T00:35:35;17.52;;;10.57;;
40044;SDS011;25735;48.122;11.422;2023-02-13T00:38:00;24.23;;;13.85;;
40044;SDS011;25735;48.122;11.422;2023-02-13T00:40:25;21.30;;;11.65;;
40044;SDS011;25735;48.122;11.422;2023-02-13T00:42:50;20.52;;;12.32;;
40044;SDS011;25735;48.122;11.422;2023-02-13T00:45:16;25.40;;;13.40;;
40044;SDS011;25735;48.122;11.422;2023-02-13T00:47:41;19.27;;;11.93;;
40044;SDS011;25735;48.122;11.422;2023-02-13T00:50:06;24.48;;;13.38;;
40044;SDS011;25735;48.122;11.422;2023-02-13T00:52:32;25.88;;;13.55;;
40044;SDS011;25735;48.122;11.422;2023-02-13T00:54:57;21.98;;;12.07;;
40044;SDS011;25735;48.122;11.422;2023-02-13T00:57:22;25.33;;;12.90;;
40044;SDS011;25735;48.122;11.422;2023-02-13T00:59:47;23.23;;;13.75;;
40044;SDS011;25735;48.122;11.422;2023-02-13T01:02:12;19.45;;;11.75;;
40044;SDS011;25735;48.122;11.422;2023-02-13T01:04:38;19.85;;;11.80;;
40044;SDS011;25735;48.122;11.422;2023-02-13T01:07:03;23.42;;;13.48;;
40044;SDS011;25735;48.122;11.422;2023-02-13T01:09:28;26.33;;;14.23;;
40044;SDS011;25735;48.122;11.422;2023-02-13T01:11:53;22.85;;;14.23;;
40044;SDS011;25735;48.122;11.422;2023-02-13T01:14:19;21.15;;;12.63;;
40044;SDS011;25735;48.122;11.422;2023-02-13T01:16:44;22.00;;;12.95;;
40044;SDS011;25735;48.122;11.422;2023-02-13T01:19:09;25.25;;;12.50;;
40044;SDS011;25735;48.122;11.422;2023-02-13T01:21:34;23.75;;;13.45;;
40044;SDS011;25735;48.122;11.422;2023-02-13T01:24:02;26.65;;;15.20;;
40044;SDS011;25735;48.122;11.422;2023-02-13T01:26:28;23.67;;;12.80;;
40044;SDS011;25735;48.122;11.422;2023-02-13T01:28:54;23.63;;;12.82;;
40044;SDS011;25735;48.122;11.422;2023-02-13T01:31:19;25.35;;;13.35;;
40044;SDS011;25735;48.122;11.422;2023-02-13T01:33:45;23.42;;;14.38;;
40044;SDS011;25735;48.122;11.422;2023-02-13T01:36:10;24.52;;;13.60;;
40044;SDS011;25735;48.122;11.422;2023-02-13T01:38:38;24.75;;;13.73;;
40044;SDS011;25735;48.122;11.422;2023-02-13T01:41:03;24.02;;;13.60;;
40044;SDS011;25735;48.122;11.422;2023-02-13T01:43:48;25.92;;;14.23;;
40044;SDS011;25735;48.122;11.422;2023-02-13T01:46:21;24.40;;;12.73;;
40044;SDS011;25735;48.122;11.422;2023-02-13T01:48:50;24.42;;;14.05;;
40044;SDS011;25735;48.122;11.422;2023-02-13T01:51:19;27.52;;;13.95;;
40044;SDS011;25735;48.122;11.422;2023-02-13T01:53:50;29.75;;;15.02;;
40044;SDS011;25735;48.122;11.422;2023-02-13T01:56:21;27.77;;;15.00;;
40044;SDS011;25735;48.122;11.422;2023-02-13T01:58:47;23.02;;;13.98;;
40044;SDS011;25735;48.122;11.422;2023-02-13T02:01:17;30.80;;;15.80;;
40044;SDS011;25735;48.122;11.422;2023-02-13T02:03:45;26.42;;;15.13;;
40044;SDS011;25735;48.122;11.422;2023-02-13T02:06:14;28.13;;;14.77;;
40044;SDS011;25735;48.122;11.422;2023-02-13T02:08:46;28.77;;;15.00;;
40044;SDS011;25735;48.122;11.422;2023-02-13T02:14:10;26.35;;;13.95;;
40044;SDS011;25735;48.122;11.422;2023-02-13T02:16:35;25.38;;;13.95;;
40044;SDS011;25735;48.122;11.422;2023-02-13T02:19:01;24.33;;;13.65;;
40044;SDS011;25735;48.122;11.422;2023-02-13T02:27:17;25.60;;;13.23;;
40044;SDS011;25735;48.122;11.422;2023-02-13T02:30:19;27.45;;;13.57;;
40044;SDS011;25735;48.122;11.422;2023-02-13T02:35:45;27.58;;;15.10;;
40044;SDS011;25735;48.122;11.422;2023-02-13T02:41:24;25.42;;;13.93;;
40044;SDS011;25735;48.122;11.422;2023-02-13T02:44:08;27.08;;;13.60;;
40044;SDS011;25735;48.122;11.422;2023-02-13T02:46:57;24.23;;;13.18;;
40044;SDS011;25735;48.122;11.422;2023-02-13T02:58:50;29.80;;;15.32;;
40044;SDS011;25735;48.122;11.422;2023-02-13T03:01:39;29.50;;;15.10;;
40044;SDS011;25735;48.122;11.422;2023-02-13T03:07:17;21.65;;;11.02;;
40044;SDS011;25735;48.122;11.422;2023-02-13T03:09:46;28.10;;;14.50;;
40044;SDS011;25735;48.122;11.422;2023-02-13T03:12:37;30.73;;;16.15;;
40044;SDS011;25735;48.122;11.422;2023-02-13T03:15:24;30.45;;;14.90;;
40044;SDS011;25735;48.122;11.422;2023-02-13T03:17:51;26.58;;;14.27;;
40044;SDS011;25735;48.122;11.422;2023-02-13T03:29:00;28.67;;;15.00;;
40044;SDS011;25735;48.122;11.422;2023-02-13T03:31:54;28.65;;;15.02;;
40044;SDS011;25735;48.122;11.422;2023-02-13T03:34:31;25.88;;;16.25;;
40044;SDS011;25735;48.122;11.422;2023-02-13T03:37:23;27.10;;;14.77;;
40044;SDS011;25735;48.122;11.422;2023-02-13T03:40:17;29.88;;;15.77;;
40044;SDS011;25735;48.122;11.422;2023-02-13T03:42:58;28.52;;;15.70;;
40044;SDS011;25735;48.122;11.422;2023-02-13T03:45:35;29.08;;;16.17;;
40044;SDS011;25735;48.122;11.422;2023-02-13T03:48:18;27.48;;;15.02;;
40044;SDS011;25735;48.122;11.422;2023-02-13T03:51:15;25.60;;;14.55;;
40044;SDS011;25735;48.122;11.422;2023-02-13T03:53:46;22.63;;;12.40;;
40044;SDS011;25735;48.122;11.422;2023-02-13T03:56:15;22.05;;;12.75;;
40044;SDS011;25735;48.122;11.422;2023-02-13T03:59:02;20.73;;;12.85;;
40044;SDS011;25735;48.122;11.422;2023-02-13T04:01:44;18.80;;;10.68;;
40044;SDS011;25735;48.122;11.422;2023-02-13T04:04:16;18.83;;;10.85;;
40044;SDS011;25735;48.122;11.422;2023-02-13T04:06:51;18.75;;;11.10;;
40044;SDS011;25735;48.122;11.422;2023-02-13T04:09:32;15.15;;;10.02;;
40044;SDS011;25735;48.122;11.422;2023-02-13T04:12:04;17.77;;;9.98;;
40044;SDS011;25735;48.122;11.422;2023-02-13T04:14:47;18.52;;;11.23;;
40044;SDS011;25735;48.122;11.422;2023-02-13T04:17:18;17.58;;;11.48;;
40044;SDS011;25735;48.122;11.422;2023-02-13T04:19:54;18.85;;;12.23;;
40044;SDS011;25735;48.122;11.422;2023-02-13T04:22:20;19.33;;;11.25;;
40044;SDS011;25735;48.122;11.422;2023-02-13T04:24:45;17.02;;;10.77;;
40044;SDS011;25735;48.122;11.422;2023-02-13T04:27:12;16.58;;;10.43;;
40044;SDS011;25735;48.122;11.422;2023-02-13T04:29:39;18.25;;;11.13;;
40044;SDS011;25735;48.122;11.422;2023-02-13T04:32:04;17.08;;;10.50;;
40044;SDS011;25735;48.122;11.422;2023-02-13T04:34:29;16.55;;;10.82;;
40044;SDS011;25735;48.122;11.422;2023-02-13T04:36:55;14.88;;;9.73;;
40044;SDS011;25735;48.122;11.422;2023-02-13T04:39:20;18.90;;;11.82;;
40044;SDS011;25735;48.122;11.422;2023-02-13T04:41:45;19.23;;;11.55;;
40044;SDS011;25735;48.122;11.422;2023-02-13T04:44:10;20.15;;;11.77;;
40044;SDS011;25735;48.122;11.422;2023-02-13T04:46:36;20.13;;;12.43;;
40044;SDS011;25735;48.122;11.422;2023-02-13T04:49:01;16.73;;;11.48;;
40044;SDS011;25735;48.122;11.422;2023-02-13T04:51:26;18.40;;;11.48;;
40044;SDS011;25735;48.122;11.422;2023-02-13T04:53:51;18.80;;;11.65;;
40044;SDS011;25735;48.122;11.422;2023-02-13T04:56:17;17.83;;;11.57;;
40044;SDS011;25735;48.122;11.422;2023-02-13T04:58:42;21.92;;;13.43;;
40044;SDS011;25735;48.122;11.422;2023-02-13T05:01:11;21.13;;;12.95;;
40044;SDS011;25735;48.122;11.422;2023-02-13T05:03:40;21.63;;;12.90;;
40044;SDS011;25735;48.122;11.422;2023-02-13T05:06:06;19.15;;;11.50;;
40044;SDS011;25735;48.122;11.422;2023-02-13T05:08:31;21.50;;;13.25;;
40044;SDS011;25735;48.122;11.422;2023-02-13T05:10:57;20.48;;;12.35;;
40044;SDS011;25735;48.122;11.422;2023-02-13T05:13:22;18.80;;;11.73;;
40044;SDS011;25735;48.122;11.422;2023-02-13T05:15:47;21.80;;;11.55;;
40044;SDS011;25735;48.122;11.422;2023-02-13T05:18:13;17.55;;;11.35;;
40044;SDS011;25735;48.122;11.422;2023-02-13T05:20:39;21.00;;;12.65;;
40044;SDS011;25735;48.122;11.422;2023-02-13T05:23:07;20.35;;;11.10;;
40044;SDS011;25735;48.122;11.422;2023-02-13T05:25:47;19.75;;;11.73;;
40044;SDS011;25735;48.122;11.422;2023-02-13T05:28:12;18.90;;;11.52;;
40044;SDS011;25735;48.122;11.422;2023-02-13T05:30:56;17.83;;;11.55;;
40044;SDS011;25735;48.122;11.422;2023-02-13T05:33:21;22.20;;;12.30;;
40044;SDS011;25735;48.122;11.422;2023-02-13T05:35:46;22.13;;;12.77;;
40044;SDS011;25735;48.122;11.422;2023-02-13T05:38:12;20.35;;;12.20;;
40044;SDS011;25735;48.122;11.422;2023-02-13T05:40:37;21.20;;;12.95;;
40044;SDS011;25735;48.122;11.422;2023-02-13T05:43:02;20.23;;;12.70;;
40044;SDS011;25735;48.122;11.422;2023-02-13T05:45:27;21.52;;;12.75;;
40044;SDS011;25735;48.122;11.422;2023-02-13T05:47:53;19.33;;;11.80;;
40044;SDS011;25735;48.122;11.422;2023-02-13T05:50:18;26.08;;;13.85;;
40044;SDS011;25735;48.122;11.422;2023-02-13T05:52:44;23.75;;;14.25;;
40044;SDS011;25735;48.122;11.422;2023-02-13T05:55:09;21.90;;;12.57;;
40044;SDS011;25735;48.122;11.422;2023-02-13T05:57:34;24.15;;;14.48;;
40044;SDS011;25735;48.122;11.422;2023-02-13T05:59:59;21.95;;;12.95;;
40044;SDS011;25735;48.122;11.422;2023-02-13T06:02:24;19.25;;;11.38;;
40044;SDS011;25735;48.122;11.422;2023-02-13T06:04:51;21.00;;;12.05;;
40044;SDS011;25735;48.122;11.422;2023-02-13T06:07:16;23.13;;;13.10;;
40044;SDS011;25735;48.122;11.422;2023-02-13T06:09:41;20.50;;;12.45;;
40044;SDS011;25735;48.122;11.422;2023-02-13T06:12:07;21.38;;;12.95;;
40044;SDS011;25735;48.122;11.422;2023-02-13T06:14:32;20.27;;;12.38;;
40044;SDS011;25735;48.122;11.422;2023-02-13T06:16:57;20.55;;;12.27;;
40044;SDS011;25735;48.122;11.422;2023-02-13T06:19:25;19.48;;;11.55;;
40044;SDS011;25735;48.122;11.422;2023-02-13T06:21:50;21.40;;;13.30;;
40044;SDS011;25735;48.122;11.422;2023-02-13T06:24:15;20.73;;;13.18;;
40044;SDS011;25735;48.122;11.422;2023-02-13T06:26:40;25.67;;;15.20;;
40044;SDS011;25735;48.122;11.422;2023-02-13T06:29:06;22.33;;;12.30;;
40044;SDS011;25735;48.122;11.422;2023-02-13T06:31:33;24.30;;;14.35;;
40044;SDS011;25735;48.122;11.422;2023-02-13T06:33:58;24.90;;;14.20;;
40044;SDS011;25735;48.122;11.422;2023-02-13T06:36:23;22.30;;;12.73;;
40044;SDS011;25735;48.122;11.422;2023-02-13T06:38:48;22.77;;;14.10;;
40044;SDS011;25735;48.122;11.422;2023-02-13T06:41:14;23.48;;;13.75;;
40044;SDS011;25735;48.122;11.422;2023-02-13T06:43:39;23.20;;;14.50;;
40044;SDS011;25735;48.122;11.422;2023-02-13T06:46:05;27.08;;;15.07;;
40044;SDS011;25735;48.122;11.422;2023-02-13T06:48:31;22.38;;;13.32;;
40044;SDS011;25735;48.122;11.422;2023-02-13T06:50:56;23.23;;;13.45;;
40044;SDS011;25735;48.122;11.422;2023-02-13T06:53:21;37.00;;;15.30;;
40044;SDS011;25735;48.122;11.422;2023-02-13T06:55:49;24.67;;;14.15;;
40044;SDS011;25735;48.122;11.422;2023-02-13T06:58:16;23.42;;;14.48;;
40044;SDS011;25735;48.122;11.422;2023-02-13T07:00:41;25.85;;;15.27;;
40044;SDS011;25735;48.122;11.422;2023-02-13T07:03:06;22.80;;;14.10;;
40044;SDS011;25735;48.122;11.422;2023-02-13T07:05:33;24.15;;;14.25;;
40044;SDS011;25735;48.122;11.422;2023-02-13T07:07:59;22.15;;;13.02;;
40044;SDS011;25735;48.122;11.422;2023-02-13T07:10:24;23.05;;;14.25;;
40044;SDS011;25735;48.122;11.422;2023-02-13T07:12:49;22.95;;;15.18;;
40044;SDS011;25735;48.122;11.422;2023-02-13T07:15:15;24.70;;;14.73;;
40044;SDS011;25735;48.122;11.422;2023-02-13T07:17:40;24.67;;;14.55;;
40044;SDS011;25735;48.122;11.422;2023-02-13T07:20:06;21.95;;;13.73;;
40044;SDS011;25735;48.122;11.422;2023-02-13T07:25:19;23.25;;;14.70;;
40044;SDS011;25735;48.122;11.422;2023-02-13T07:27:45;24.35;;;16.40;;
40044;SDS011;25735;48.122;11.422;2023-02-13T07:30:11;22.85;;;14.27;;
40044;SDS011;25735;48.122;11.422;2023-02-13T07:32:36;20.98;;;12.70;;
40044;SDS011;25735;48.122;11.422;2023-02-13T07:35:02;26.90;;;15.35;;
40044;SDS011;25735;48.122;11.422;2023-02-13T07:37:28;24.02;;;13.70;;
40044;SDS011;25735;48.122;11.422;2023-02-13T07:39:55;22.77;;;14.20;;
40044;SDS011;25735;48.122;11.422;2023-02-13T07:42:20;21.75;;;13.48;;
40044;SDS011;25735;48.122;11.422;2023-02-13T07:44:46;25.25;;;14.43;;
40044;SDS011;25735;48.122;11.422;2023-02-13T07:47:11;23.25;;;13.43;;
40044;SDS011;25735;48.122;11.422;2023-02-13T07:49:36;25.00;;;14.98;;
40044;SDS011;25735;48.122;11.422;2023-02-13T07:52:02;23.08;;;14.60;;
40044;SDS011;25735;48.122;11.422;2023-02-13T07:54:28;21.63;;;13.40;;
40044;SDS011;25735;48.122;11.422;2023-02-13T07:56:53;24.27;;;14.35;;
40044;SDS011;25735;48.122;11.422;2023-02-13T07:59:19;23.15;;;14.88;;
40044;SDS011;25735;48.122;11.422;2023-02-13T08:01:44;28.23;;;15.75;;
40044;SDS011;25735;48.122;11.422;2023-02-13T08:04:09;25.20;;;16.05;;
40044;SDS011;25735;48.122;11.422;2023-02-13T08:06:37;24.85;;;14.52;;
40044;SDS011;25735;48.122;11.422;2023-02-13T08:09:03;23.95;;;15.40;;
40044;SDS011;25735;48.122;11.422;2023-02-13T08:11:46;24.45;;;14.23;;
40044;SDS011;25735;48.122;11.422;2023-02-13T08:14:18;26.02;;;15.45;;
40044;SDS011;25735;48.122;11.422;2023-02-13T08:16:44;25.02;;;14.70;;
40044;SDS011;25735;48.122;11.422;2023-02-13T08:19:10;26.25;;;15.13;;
40044;SDS011;25735;48.122;11.422;2023-02-13T08:21:35;24.50;;;15.32;;
40044;SDS011;25735;48.122;11.422;2023-02-13T08:24:02;25.52;;;15.88;;
40044;SDS011;25735;48.122;11.422;2023-02-13T08:26:29;26.75;;;15.68;;
40044;SDS011;25735;48.122;11.422;2023-02-13T08:28:55;22.40;;;14.48;;
40044;SDS011;25735;48.122;11.422;2023-02-13T08:31:20;22.58;;;13.68;;
40044;SDS011;25735;48.122;11.422;2023-02-13T08:33:46;23.50;;;13.60;;
40044;SDS011;25735;48.122;11.422;2023-02-13T08:36:11;28.48;;;15.40;;
40044;SDS011;25735;48.122;11.422;2023-02-13T08:38:36;23.58;;;14.57;;
40044;SDS011;25735;48.122;11.422;2023-02-13T08:41:01;25.80;;;14.75;;
40044;SDS011;25735;48.122;11.422;2023-02-13T08:43:27;25.50;;;14.25;;
40044;SDS011;25735;48.122;11.422;2023-02-13T08:45:53;24.88;;;14.70;;
40044;SDS011;25735;48.122;11.422;2023-02-13T08:48:18;21.17;;;14.23;;
40044;SDS011;25735;48.122;11.422;2023-02-13T08:50:43;23.02;;;14.35;;
40044;SDS011;25735;48.122;11.422;2023-02-13T08:53:09;24.33;;;14.68;;
40044;SDS011;25735;48.122;11.422;2023-02-13T08:55:34;24.15;;;14.05;;
40044;SDS011;25735;48.122;11.422;2023-02-13T08:58:00;24.30;;;14.73;;
40044;SDS011;25735;48.122;11.422;2023-02-13T09:00:26;21.92;;;13.30;;
40044;SDS011;25735;48.122;11.422;2023-02-13T09:02:52;20.63;;;12.85;;
40044;SDS011;25735;48.122;11.422;2023-02-13T09:05:17;21.05;;;13.32;;
40044;SDS011;25735;48.122;11.422;2023-02-13T09:07:43;21.58;;;13.45;;
40044;SDS011;25735;48.122;11.422;2023-02-13T09:10:08;20.75;;;13.40;;
40044;SDS011;25735;48.122;11.422;2023-02-13T09:12:33;23.75;;;13.65;;
40044;SDS011;25735;48.122;11.422;2023-02-13T09:14:59;22.45;;;13.45;;
40044;SDS011;25735;48.122;11.422;2023-02-13T09:17:24;25.00;;;13.98;;
40044;SDS011;25735;48.122;11.422;2023-02-13T09:19:49;19.48;;;12.07;;
40044;SDS011;25735;48.122;11.422;2023-02-13T09:22:15;21.02;;;12.43;;
40044;SDS011;25735;48.122;11.422;2023-02-13T09:24:41;20.00;;;12.60;;
40044;SDS011;25735;48.122;11.422;2023-02-13T09:27:06;20.45;;;13.23;;
40044;SDS011;25735;48.122;11.422;2023-02-13T09:29:32;21.98;;;13.75;;
40044;SDS011;25735;48.122;11.422;2023-02-13T09:31:58;22.05;;;12.43;;
40044;SDS011;25735;48.122;11.422;2023-02-13T09:34:23;18.60;;;12.48;;
40044;SDS011;25735;48.122;11.422;2023-02-13T09:36:52;20.42;;;13.70;;
40044;SDS011;25735;48.122;11.422;2023-02-13T09:39:17;22.48;;;13.27;;
40044;SDS011;25735;48.122;11.422;2023-02-13T09:41:43;23.67;;;14.60;;
40044;SDS011;25735;48.122;11.422;2023-02-13T09:46:37;23.60;;;14.40;;
40044;SDS011;25735;48.122;11.422;2023-02-13T09:49:06;22.60;;;13.60;;
40044;SDS011;25735;48.122;11.422;2023-02-13T09:51:36;24.77;;;14.57;;
40044;SDS011;25735;48.122;11.422;2023-02-13T09:54:02;20.85;;;13.40;;
40044;SDS011;25735;48.122;11.422;2023-02-13T10:01:36;25.33;;;14.63;;
40044;SDS011;25735;48.122;11.422;2023-02-13T10:04:19;20.85;;;13.68;;
40044;SDS011;25735;48.122;11.422;2023-02-13T10:06:53;20.83;;;12.35;;
40044;SDS011;25735;48.122;11.422;2023-02-13T10:12:17;20.08;;;12.65;;
40044;SDS011;25735;48.122;11.422;2023-02-13T10:17:34;22.75;;;14.35;;
40044;SDS011;25735;48.122;11.422;2023-02-13T10:20:06;19.88;;;12.75;;
40044;SDS011;25735;48.122;11.422;2023-02-13T10:22:45;22.88;;;14.25;;
40044;SDS011;25735;48.122;11.422;2023-02-13T10:25:20;23.38;;;14.70;;
40044;SDS011;25735;48.122;11.422;2023-02-13T10:27:51;24.13;;;15.50;;
40044;SDS011;25735;48.122;11.422;2023-02-13T10:30:20;21.67;;;13.55;;
40044;SDS011;25735;48.122;11.422;2023-02-13T10:35:39;18.65;;;12.73;;
40044;SDS011;25735;48.122;11.422;2023-02-13T10:38:16;22.92;;;14.60;;
40044;SDS011;25735;48.122;11.422;2023-02-13T10:40:52;23.17;;;14.98;;
40044;SDS011;25735;48.122;11.422;2023-02-13T10:48:59;23.08;;;14.95;;
40044;SDS011;25735;48.122;11.422;2023-02-13T10:52:32;21.38;;;14.23;;
40044;SDS011;25735;48.122;11.422;2023-02-13T10:57:26;22.40;;;14.45;;
40044;SDS011;25735;48.122;11.422;2023-02-13T11:02:40;25.70;;;14.90;;
40044;SDS011;25735;48.122;11.422;2023-02-13T11:07:43;23.13;;;14.65;;
40044;SDS011;25735;48.122;11.422;2023-02-13T11:10:21;25.20;;;14.85;;
40044;SDS011;25735;48.122;11.422;2023-02-13T11:12:48;21.63;;;14.85;;
40044;SDS011;25735;48.122;11.422;2023-02-13T11:15:26;20.73;;;15.02;;
40044;SDS011;25735;48.122;11.422;2023-02-13T11:17:54;23.23;;;14.88;;
40044;SDS011;25735;48.122;11.422;2023-02-13T11:20:33;22.83;;;15.45;;
40044;SDS011;25735;48.122;11.422;2023-02-13T11:24:01;22.25;;;14.98;;
40044;SDS011;25735;48.122;11.422;2023-02-13T11:25:56;23.15;;;14.80;;
40044;SDS011;25735;48.122;11.422;2023-02-13T11:28:25;28.10;;;16.58;;
40044;SDS011;25735;48.122;11.422;2023-02-13T11:30:53;22.98;;;14.68;;
40044;SDS011;25735;48.122;11.422;2023-02-13T11:33:33;27.75;;;16.38;;
40044;SDS011;25735;48.122;11.422;2023-02-13T11:36:09;25.42;;;16.52;;
40044;SDS011;25735;48.122;11.422;2023-02-13T11:38:39;23.95;;;15.77;;
40044;SDS011;25735;48.122;11.422;2023-02-13T11:41:08;25.67;;;16.08;;
40044;SDS011;25735;48.122;11.422;2023-02-13T11:43:46;25.95;;;15.57;;
40044;SDS011;25735;48.122;11.422;2023-02-13T11:48:59;25.90;;;16.92;;
40044;SDS011;25735;48.122;11.422;2023-02-13T11:51:40;26.45;;;16.33;;
40044;SDS011;25735;48.122;11.422;2023-02-13T11:54:05;27.60;;;17.25;;
40044;SDS011;25735;48.122;11.422;2023-02-13T11:56:47;26.30;;;16.38;;
40044;SDS011;25735;48.122;11.422;2023-02-13T11:59:14;24.42;;;16.90;;
40044;SDS011;25735;48.122;11.422;2023-02-13T12:01:40;26.33;;;16.50;;
40044;SDS011;25735;48.122;11.422;2023-02-13T12:04:13;27.58;;;15.85;;
40044;SDS011;25735;48.122;11.422;2023-02-13T12:07:09;25.23;;;16.15;;
40044;SDS011;25735;48.122;11.422;2023-02-13T12:09:38;22.27;;;15.45;;
40044;SDS011;25735;48.122;11.422;2023-02-13T12:12:05;24.27;;;14.70;;
40044;SDS011;25735;48.122;11.422;2023-02-13T12:14:38;26.63;;;16.92;;
40044;SDS011;25735;48.122;11.422;2023-02-13T12:17:07;26.25;;;16.17;;
40044;SDS011;25735;48.122;11.422;2023-02-13T12:19:40;22.63;;;14.88;;
40044;SDS011;25735;48.122;11.422;2023-02-13T12:30:16;30.83;;;18.00;;
40044;SDS011;25735;48.122;11.422;2023-02-13T12:41:17;25.63;;;16.77;;
40044;SDS011;25735;48.122;11.422;2023-02-13T12:49:18;22.77;;;14.98;;
40044;SDS011;25735;48.122;11.422;2023-02-13T12:54:58;24.05;;;15.88;;
40044;SDS011;25735;48.122;11.422;2023-02-13T13:16:53;24.73;;;15.77;;
40044;SDS011;25735;48.122;11.422;2023-02-13T13:19:44;23.38;;;15.50;;
40044;SDS011;25735;48.122;11.422;2023-02-13T13:22:20;26.48;;;16.77;;
40044;SDS011;25735;48.122;11.422;2023-02-13T13:27:32;22.33;;;15.85;;
40044;SDS011;25735;48.122;11.422;2023-02-13T13:30:00;24.35;;;16.67;;
40044;SDS011;25735;48.122;11.422;2023-02-13T13:32:45;25.67;;;16.95;;
40044;SDS011;25735;48.122;11.422;2023-02-13T13:35:16;28.80;;;16.58;;
40044;SDS011;25735;48.122;11.422;2023-02-13T13:40:27;23.17;;;16.15;;
40044;SDS011;25735;48.122;11.422;2023-02-13T13:43:09;26.63;;;16.52;;
40044;SDS011;25735;48.122;11.422;2023-02-13T13:45:48;25.65;;;16.90;;
40044;SDS011;25735;48.122;11.422;2023-02-13T13:48:35;24.92;;;16.38;;
40044;SDS011;25735;48.122;11.422;2023-02-13T13:51:21;25.83;;;17.75;;
40044;SDS011;25735;48.122;11.422;2023-02-13T13:56:24;24.92;;;17.08;;
40044;SDS011;25735;48.122;11.422;2023-02-13T13:58:50;27.90;;;18.00;;
40044;SDS011;25735;48.122;11.422;2023-02-13T14:01:23;28.75;;;16.95;;
40044;SDS011;25735;48.122;11.422;2023-02-13T14:03:56;28.98;;;19.17;;
40044;SDS011;25735;48.122;11.422;2023-02-13T14:06:24;28.00;;;17.90;;
40044;SDS011;25735;48.122;11.422;2023-02-13T14:08:53;27.05;;;17.60;;
40044;SDS011;25735;48.122;11.422;2023-02-13T14:11:25;23.33;;;15.57;;
40044;SDS011;25735;48.122;11.422;2023-02-13T14:13:54;20.40;;;14.82;;
40044;SDS011;25735;48.122;11.422;2023-02-13T14:16:39;27.40;;;17.40;;
40044;SDS011;25735;48.122;11.422;2023-02-13T14:24:53;24.73;;;16.90;;
40044;SDS011;25735;48.122;11.422;2023-02-13T14:27:25;25.25;;;17.45;;
40044;SDS011;25735;48.122;11.422;2023-02-13T14:29:54;23.85;;;15.35;;
40044;SDS011;25735;48.122;11.422;2023-02-13T14:34:59;20.67;;;14.98;;
40044;SDS011;25735;48.122;11.422;2023-02-13T14:37:34;24.67;;;15.75;;
40044;SDS011;25735;48.122;11.422;2023-02-13T14:42:50;22.45;;;13.55;;
40044;SDS011;25735;48.122;11.422;2023-02-13T14:45:19;23.00;;;15.90;;
40044;SDS011;25735;48.122;11.422;2023-02-13T14:47:51;17.23;;;12.57;;
40044;SDS011;25735;48.122;11.422;2023-02-13T14:50:21;22.00;;;13.30;;
40044;SDS011;25735;48.122;11.422;2023-02-13T14:52:51;18.48;;;12.93;;
40044;SDS011;25735;48.122;11.422;2023-02-13T14:55:27;21.90;;;15.15;;
40044;SDS011;25735;48.122;11.422;2023-02-13T14:58:01;21.70;;;13.32;;
40044;SDS011;25735;48.122;11.422;2023-02-13T15:03:36;20.58;;;11.85;;
40044;SDS011;25735;48.122;11.422;2023-02-13T15:06:21;15.95;;;11.05;;
40044;SDS011;25735;48.122;11.422;2023-02-13T15:08:50;15.98;;;11.73;;
40044;SDS011;25735;48.122;11.422;2023-02-13T15:11:34;18.83;;;13.27;;
40044;SDS011;25735;48.122;11.422;2023-02-13T15:14:21;17.60;;;12.60;;
40044;SDS011;25735;48.122;11.422;2023-02-13T15:17:00;20.92;;;12.25;;
40044;SDS011;25735;48.122;11.422;2023-02-13T15:19:44;35.75;;;24.58;;
40044;SDS011;25735;48.122;11.422;2023-02-13T15:22:17;27.38;;;18.73;;
40044;SDS011;25735;48.122;11.422;2023-02-13T15:24:57;15.90;;;11.43;;
40044;SDS011;25735;48.122;11.422;2023-02-13T15:27:24;17.77;;;11.50;;
40044;SDS011;25735;48.122;11.422;2023-02-13T15:30:29;19.83;;;14.23;;
40044;SDS011;25735;48.122;11.422;2023-02-13T15:32:59;18.30;;;12.50;;
40044;SDS011;25735;48.122;11.422;2023-02-13T15:35:27;18.38;;;12.32;;
40044;SDS011;25735;48.122;11.422;2023-02-13T15:37:54;19.70;;;13.18;;
40044;SDS011;25735;48.122;11.422;2023-02-13T15:40:22;17.95;;;13.20;;
40044;SDS011;25735;48.122;11.422;2023-02-13T15:42:51;20.13;;;13.73;;
40044;SDS011;25735;48.122;11.422;2023-02-13T15:45:18;20.02;;;14.18;;
40044;SDS011;25735;48.122;11.422;2023-02-13T15:47:45;20.80;;;13.25;;
40044;SDS011;25735;48.122;11.422;2023-02-13T15:52:45;18.73;;;13.23;;
40044;SDS011;25735;48.122;11.422;2023-02-13T15:55:16;18.20;;;13.20;;
40044;SDS011;25735;48.122;11.422;2023-02-13T15:57:44;18.17;;;12.95;;
40044;SDS011;25735;48.122;11.422;2023-02-13T16:00:12;23.98;;;14.68;;
40044;SDS011;25735;48.122;11.422;2023-02-13T16:02:47;17.30;;;13.18;;
40044;SDS011;25735;48.122;11.422;2023-02-13T16:05:15;22.10;;;14.07;;
40044;SDS011;25735;48.122;11.422;2023-02-13T16:07:51;23.83;;;13.07;;
40044;SDS011;25735;48.122;11.422;2023-02-13T16:10:28;22.10;;;13.32;;
40044;SDS011;25735;48.122;11.422;2023-02-13T16:12:59;25.10;;;14.73;;
40044;SDS011;25735;48.122;11.422;2023-02-13T16:15:27;22.38;;;14.15;;
40044;SDS011;25735;48.122;11.422;2023-02-13T16:17:54;19.77;;;14.18;;
40044;SDS011;25735;48.122;11.422;2023-02-13T16:20:20;19.38;;;13.20;;
40044;SDS011;25735;48.122;11.422;2023-02-13T16:25:21;23.10;;;14.50;;
40044;SDS011;25735;48.122;11.422;2023-02-13T16:27:48;20.15;;;13.57;;
40044;SDS011;25735;48.122;11.422;2023-02-13T16:35:39;21.70;;;14.38;;
40044;SDS011;25735;48.122;11.422;2023-02-13T16:40:56;27.25;;;17.05;;
40044;SDS011;25735;48.122;11.422;2023-02-13T16:43:37;23.70;;;15.10;;
40044;SDS011;25735;48.122;11.422;2023-02-13T16:48:36;25.17;;;16.33;;
40044;SDS011;25735;48.122;11.422;2023-02-13T16:51:02;23.98;;;14.63;;
40044;SDS011;25735;48.122;11.422;2023-02-13T16:53:27;26.05;;;14.85;;
40044;SDS011;25735;48.122;11.422;2023-02-13T16:56:00;26.75;;;15.68;;
40044;SDS011;25735;48.122;11.422;2023-02-13T16:58:27;24.48;;;15.25;;